createdAt,value
2024-02-13T00:00:42.638Z,1005.36
2024-02-13T00:01:42.643Z,1005.37
2024-02-13T00:02:42.591Z,1005.39
2024-02-13T00:03:42.600Z,1005.40
2024-02-13T00:04:42.531Z,1005.40
2024-02-13T00:05:42.570Z,1005.43
2024-02-13T00:06:42.512Z,1005.37
2024-02-13T00:07:42.734Z,1005.44
2024-02-13T00:08:45.749Z,1005.42
2024-02-13T00:09:42.473Z,1005.43
2024-02-13T00:10:42.481Z,1005.49
2024-02-13T00:11:42.484Z,1005.52
2024-02-13T00:12:42.468Z,1005.54
2024-02-13T00:13:42.435Z,1005.54
2024-02-13T00:14:44.377Z,1005.61
2024-02-13T00:15:42.439Z,1005.57
2024-02-13T00:16:42.394Z,1005.57
2024-02-13T00:17:42.556Z,1005.62
2024-02-13T00:18:42.440Z,1005.61
2024-02-13T00:19:42.474Z,1005.62
2024-02-13T00:20:42.416Z,1005.64
2024-02-13T00:21:42.347Z,1005.63
2024-02-13T00:22:42.378Z,1005.64
2024-02-13T00:23:42.371Z,1005.67
2024-02-13T00:24:42.326Z,1005.66
2024-02-13T00:25:42.299Z,1005.69
2024-02-13T00:26:42.336Z,1005.67
2024-02-13T00:27:42.286Z,1005.70
2024-02-13T00:28:42.326Z,1005.66
2024-02-13T00:29:42.329Z,1005.68
2024-02-13T00:30:42.278Z,1005.67
2024-02-13T00:31:42.246Z,1005.73
2024-02-13T00:32:42.424Z,1005.75
2024-02-13T00:33:42.465Z,1005.74
2024-02-13T00:34:42.240Z,1005.75
2024-02-13T00:35:42.214Z,1005.84
2024-02-13T00:36:42.190Z,1005.78
2024-02-13T00:37:42.179Z,1005.83
2024-02-13T00:38:42.204Z,1005.84
2024-02-13T00:39:42.152Z,1005.88
2024-02-13T00:40:42.148Z,1005.90
2024-02-13T00:41:42.190Z,1005.89
2024-02-13T00:42:42.125Z,1005.91
2024-02-13T00:43:42.211Z,1005.91
2024-02-13T00:44:42.143Z,1005.93
2024-02-13T00:45:42.086Z,1005.90
2024-02-13T00:46:42.077Z,1005.93
2024-02-13T00:47:42.240Z,1005.91
2024-02-13T00:48:42.192Z,1005.96
2024-02-13T00:49:42.124Z,1005.99
2024-02-13T00:50:42.064Z,1005.95
2024-02-13T00:51:42.040Z,1005.99
2024-02-13T00:52:42.224Z,1005.96
2024-02-13T00:53:42.083Z,1006.04
2024-02-13T00:54:42.023Z,1006.10
2024-02-13T00:55:41.976Z,1006.10
2024-02-13T00:56:42.042Z,1006.11
2024-02-13T00:57:42.026Z,1006.12
2024-02-13T00:58:41.956Z,1006.09
2024-02-13T00:59:42.018Z,1006.10
2024-02-13T01:00:41.991Z,1006.13
2024-02-13T01:01:41.930Z,1006.08
2024-02-13T01:02:41.971Z,1006.12
2024-02-13T01:03:41.996Z,1006.14
2024-02-13T01:04:41.878Z,1006.14
2024-02-13T01:05:41.925Z,1006.14
2024-02-13T01:06:41.907Z,1006.16
2024-02-13T01:07:41.841Z,1006.24
2024-02-13T01:08:41.885Z,1006.22
2024-02-13T01:09:41.829Z,1006.24
2024-02-13T01:10:41.841Z,1006.24
2024-02-13T01:11:41.871Z,1006.24
2024-02-13T01:12:41.808Z,1006.23
2024-02-13T01:13:41.820Z,1006.25
2024-02-13T01:14:41.856Z,1006.23
2024-02-13T01:15:41.779Z,1006.25
2024-02-13T01:16:41.874Z,1006.25
2024-02-13T01:17:41.789Z,1006.30
2024-02-13T01:18:41.826Z,1006.26
2024-02-13T01:19:41.909Z,1006.29
2024-02-13T01:20:41.744Z,1006.33
2024-02-13T01:21:41.698Z,1006.32
2024-02-13T01:22:41.707Z,1006.32
2024-02-13T01:23:41.814Z,1006.35
2024-02-13T01:24:41.686Z,1006.35
2024-02-13T01:25:41.677Z,1006.39
2024-02-13T01:26:41.661Z,1006.48
2024-02-13T01:27:41.634Z,1006.49
2024-02-13T01:28:41.632Z,1006.52
2024-02-13T01:29:41.721Z,1006.57
2024-02-13T01:30:41.602Z,1006.56
2024-02-13T01:31:41.592Z,1006.50
2024-02-13T01:32:42.105Z,1006.54
2024-02-13T01:33:41.682Z,1006.57
2024-02-13T01:34:41.658Z,1006.50
2024-02-13T01:35:41.618Z,1006.56
2024-02-13T01:36:41.537Z,1006.56
2024-02-13T01:37:41.672Z,1006.58
2024-02-13T01:38:41.554Z,1006.61
2024-02-13T01:39:41.527Z,1006.61
2024-02-13T01:40:41.533Z,1006.60
2024-02-13T01:41:41.498Z,1006.66
2024-02-13T01:42:41.467Z,1006.70
2024-02-13T01:43:41.697Z,1006.67
2024-02-13T01:44:41.562Z,1006.69
2024-02-13T01:45:41.451Z,1006.70
2024-02-13T01:46:41.453Z,1006.68
2024-02-13T01:47:41.582Z,1006.65
2024-02-13T01:48:41.624Z,1006.69
2024-02-13T01:49:41.426Z,1006.73
2024-02-13T01:50:41.427Z,1006.69
2024-02-13T01:51:41.391Z,1006.69
2024-02-13T01:52:41.376Z,1006.70
2024-02-13T01:53:41.471Z,1006.72
2024-02-13T01:54:41.340Z,1006.74
2024-02-13T01:55:41.329Z,1006.69
2024-02-13T01:56:41.363Z,1006.73
2024-02-13T01:57:41.324Z,1006.76
2024-02-13T01:58:41.289Z,1006.75
2024-02-13T01:59:41.348Z,1006.74
2024-02-13T02:00:41.320Z,1006.76
2024-02-13T02:01:41.263Z,1006.78
2024-02-13T02:02:41.339Z,1006.72
2024-02-13T02:03:41.306Z,1006.79
2024-02-13T02:04:41.245Z,1006.79
2024-02-13T02:05:41.311Z,1006.75
2024-02-13T02:06:41.262Z,1006.80
2024-02-13T02:07:41.219Z,1006.83
2024-02-13T02:08:41.219Z,1006.79
2024-02-13T02:09:41.177Z,1006.85
2024-02-13T02:10:41.164Z,1006.82
2024-02-13T02:11:41.228Z,1006.82
2024-02-13T02:12:41.162Z,1006.88
2024-02-13T02:13:41.161Z,1006.85
2024-02-13T02:14:41.145Z,1006.92
2024-02-13T02:15:41.113Z,1006.94
2024-02-13T02:16:41.120Z,1006.96
2024-02-13T02:17:41.352Z,1006.96
2024-02-13T02:18:41.249Z,1007.01
2024-02-13T02:19:41.095Z,1007.04
2024-02-13T02:20:41.166Z,1007.03
2024-02-13T02:21:41.068Z,1007.07
2024-02-13T02:22:41.032Z,1007.03
2024-02-13T02:23:41.056Z,1007.10
2024-02-13T02:24:41.014Z,1007.12
2024-02-13T02:25:41.019Z,1007.09
2024-02-13T02:26:41.031Z,1007.09
2024-02-13T02:27:40.984Z,1007.09
2024-02-13T02:28:40.980Z,1007.13
2024-02-13T02:29:41.099Z,1007.11
2024-02-13T02:30:40.968Z,1007.10
2024-02-13T02:31:40.944Z,1007.10
2024-02-13T02:32:41.091Z,1007.14
2024-02-13T02:33:40.987Z,1007.13
2024-02-13T02:34:41.077Z,1007.12
2024-02-13T02:35:40.946Z,1007.19
2024-02-13T02:36:40.896Z,1007.25
2024-02-13T02:37:40.870Z,1007.23
2024-02-13T02:38:40.931Z,1007.27
2024-02-13T02:39:40.862Z,1007.26
2024-02-13T02:40:40.847Z,1007.22
2024-02-13T02:41:40.861Z,1007.23
2024-02-13T02:42:40.818Z,1007.22
2024-02-13T02:43:40.847Z,1007.27
2024-02-13T02:44:40.820Z,1007.28
2024-02-13T02:45:40.802Z,1007.30
2024-02-13T02:46:40.820Z,1007.33
2024-02-13T02:47:40.814Z,1007.42
2024-02-13T02:48:40.821Z,1007.40
2024-02-13T02:49:40.830Z,1007.42
2024-02-13T02:50:40.788Z,1007.42
2024-02-13T02:51:40.717Z,1007.44
2024-02-13T02:52:40.736Z,1007.49
2024-02-13T02:53:40.794Z,1007.52
2024-02-13T02:54:40.683Z,1007.53
2024-02-13T02:55:40.685Z,1007.61
2024-02-13T02:56:40.736Z,1007.59
2024-02-13T02:57:40.663Z,1007.62
2024-02-13T02:58:40.663Z,1007.61
2024-02-13T02:59:40.709Z,1007.63
2024-02-13T03:00:40.655Z,1007.71
2024-02-13T03:01:40.605Z,1007.67
2024-02-13T03:02:40.634Z,1007.67
2024-02-13T03:03:40.672Z,1007.67
2024-02-13T03:04:40.584Z,1007.70
2024-02-13T03:05:40.591Z,1007.72
2024-02-13T03:06:40.577Z,1007.71
2024-02-13T03:07:40.572Z,1007.75
2024-02-13T03:08:40.625Z,1007.82
2024-02-13T03:09:40.524Z,1007.78
2024-02-13T03:10:40.517Z,1007.78
2024-02-13T03:11:40.507Z,1007.81
2024-02-13T03:12:40.517Z,1007.81
2024-02-13T03:13:40.482Z,1007.85
2024-02-13T03:14:40.501Z,1007.85
2024-02-13T03:15:40.452Z,1007.84
2024-02-13T03:16:40.443Z,1007.80
2024-02-13T03:17:40.513Z,1007.87
2024-02-13T03:18:40.507Z,1007.86
2024-02-13T03:19:40.478Z,1007.88
2024-02-13T03:20:40.447Z,1007.93
2024-02-13T03:21:40.411Z,1007.95
2024-02-13T03:22:40.582Z,1007.96
2024-02-13T03:23:40.434Z,1007.96
2024-02-13T03:24:40.377Z,1007.98
2024-02-13T03:25:40.347Z,1008.00
2024-02-13T03:26:40.467Z,1008.01
2024-02-13T03:27:40.328Z,1008.06
2024-02-13T03:28:40.315Z,1008.08
2024-02-13T03:29:40.340Z,1008.09
2024-02-13T03:30:40.291Z,1008.07
2024-02-13T03:31:40.302Z,1008.13
2024-02-13T03:32:40.361Z,1008.10
2024-02-13T03:33:40.406Z,1008.13
2024-02-13T03:34:40.366Z,1008.08
2024-02-13T03:35:40.385Z,1008.17
2024-02-13T03:36:40.242Z,1008.13
2024-02-13T03:37:40.223Z,1008.18
2024-02-13T03:38:40.253Z,1008.22
2024-02-13T03:39:40.199Z,1008.26
2024-02-13T03:40:40.238Z,1008.28
2024-02-13T03:41:40.215Z,1008.27
2024-02-13T03:42:40.164Z,1008.31
2024-02-13T03:43:40.150Z,1008.31
2024-02-13T03:44:40.221Z,1008.37
2024-02-13T03:45:40.149Z,1008.37
2024-02-13T03:46:40.123Z,1008.38
2024-02-13T03:47:40.180Z,1008.37
2024-02-13T03:48:40.236Z,1008.41
2024-02-13T03:49:40.207Z,1008.45
2024-02-13T03:50:40.147Z,1008.47
2024-02-13T03:51:40.065Z,1008.47
2024-02-13T03:52:40.058Z,1008.52
2024-02-13T03:53:40.068Z,1008.53
2024-02-13T03:54:40.048Z,1008.55
2024-02-13T03:55:40.021Z,1008.58
2024-02-13T03:56:40.103Z,1008.58
2024-02-13T03:57:40.010Z,1008.58
2024-02-13T03:58:39.995Z,1008.55
2024-02-13T03:59:40.038Z,1008.55
2024-02-13T04:00:39.999Z,1008.56
2024-02-13T04:01:39.959Z,1008.57
2024-02-13T04:02:40.022Z,1008.57
2024-02-13T04:03:39.981Z,1008.59
2024-02-13T04:04:39.948Z,1008.64
2024-02-13T04:05:40.083Z,1008.64
2024-02-13T04:06:39.915Z,1008.63
2024-02-13T04:07:39.883Z,1008.63
2024-02-13T04:08:39.914Z,1008.64
2024-02-13T04:09:39.903Z,1008.64
2024-02-13T04:10:39.853Z,1008.73
2024-02-13T04:11:39.897Z,1008.72
2024-02-13T04:12:39.856Z,1008.79
2024-02-13T04:13:39.844Z,1008.82
2024-02-13T04:14:39.837Z,1008.80
2024-02-13T04:15:39.802Z,1008.83
2024-02-13T04:16:39.793Z,1008.80
2024-02-13T04:17:39.879Z,1008.87
2024-02-13T04:18:39.893Z,1008.89
2024-02-13T04:19:39.772Z,1008.93
2024-02-13T04:20:39.888Z,1008.89
2024-02-13T04:21:39.756Z,1008.93
2024-02-13T04:22:39.747Z,1008.86
2024-02-13T04:23:39.790Z,1008.89
2024-02-13T04:24:39.726Z,1008.92
2024-02-13T04:25:39.688Z,1008.92
2024-02-13T04:26:39.759Z,1008.91
2024-02-13T04:27:39.700Z,1008.89
2024-02-13T04:28:39.682Z,1008.92
2024-02-13T04:29:39.674Z,1008.95
2024-02-13T04:30:39.640Z,1008.94
2024-02-13T04:31:40.017Z,1008.93
2024-02-13T04:32:39.840Z,1008.96
2024-02-13T04:33:39.707Z,1008.96
2024-02-13T04:34:39.670Z,1008.99
2024-02-13T04:35:39.726Z,1009.01
2024-02-13T04:36:39.610Z,1009.02
2024-02-13T04:37:39.583Z,1009.04
2024-02-13T04:38:39.593Z,1009.06
2024-02-13T04:39:39.547Z,1009.01
2024-02-13T04:40:39.532Z,1009.09
2024-02-13T04:41:39.626Z,1009.10
2024-02-13T04:42:39.510Z,1009.06
2024-02-13T04:43:39.494Z,1009.09
2024-02-13T04:44:39.584Z,1009.09
2024-02-13T04:45:39.502Z,1009.10
2024-02-13T04:46:39.484Z,1009.13
2024-02-13T04:47:39.681Z,1009.15
2024-02-13T04:48:39.549Z,1009.14
2024-02-13T04:49:39.430Z,1009.19
2024-02-13T04:50:39.416Z,1009.21
2024-02-13T04:51:39.420Z,1009.20
2024-02-13T04:52:39.402Z,1009.25
2024-02-13T04:53:39.428Z,1009.20
2024-02-13T04:54:39.378Z,1009.27
2024-02-13T04:55:39.411Z,1009.24
2024-02-13T04:56:39.412Z,1009.25
2024-02-13T04:57:39.360Z,1009.27
2024-02-13T04:58:39.331Z,1009.25
2024-02-13T04:59:39.367Z,1009.23
2024-02-13T05:00:39.387Z,1009.22
2024-02-13T05:01:39.305Z,1009.26
2024-02-13T05:02:39.333Z,1009.18
2024-02-13T05:03:39.283Z,1009.21
2024-02-13T05:04:39.298Z,1009.24
2024-02-13T05:05:39.351Z,1009.25
2024-02-13T05:06:39.283Z,1009.23
2024-02-13T05:07:39.235Z,1009.25
2024-02-13T05:08:39.262Z,1009.31
2024-02-13T05:09:39.231Z,1009.30
2024-02-13T05:10:39.235Z,1009.29
2024-02-13T05:11:39.242Z,1009.29
2024-02-13T05:12:39.195Z,1009.34
2024-02-13T05:13:39.177Z,1009.34
2024-02-13T05:14:39.253Z,1009.32
2024-02-13T05:15:39.147Z,1009.32
2024-02-13T05:16:39.194Z,1009.38
2024-02-13T05:17:39.220Z,1009.32
2024-02-13T05:18:39.203Z,1009.33
2024-02-13T05:19:39.133Z,1009.37
2024-02-13T05:20:39.110Z,1009.37
2024-02-13T05:21:39.082Z,1009.36
2024-02-13T05:22:39.081Z,1009.37
2024-02-13T05:23:39.099Z,1009.33
2024-02-13T05:24:39.100Z,1009.38
2024-02-13T05:25:39.041Z,1009.38
2024-02-13T05:26:39.243Z,1009.41
2024-02-13T05:27:39.036Z,1009.42
2024-02-13T05:28:39.049Z,1009.47
2024-02-13T05:29:39.068Z,1009.53
2024-02-13T05:30:38.986Z,1009.55
2024-02-13T05:31:38.983Z,1009.55
2024-02-13T05:32:39.098Z,1009.58
2024-02-13T05:33:39.155Z,1009.57
2024-02-13T05:34:38.994Z,1009.61
2024-02-13T05:35:38.976Z,1009.59
2024-02-13T05:36:38.918Z,1009.63
2024-02-13T05:37:38.984Z,1009.64
2024-02-13T05:38:39.169Z,1009.63
2024-02-13T05:39:38.903Z,1009.67
2024-02-13T05:40:38.880Z,1009.68
2024-02-13T05:41:38.893Z,1009.69
2024-02-13T05:42:38.894Z,1009.70
2024-02-13T05:43:38.844Z,1009.72
2024-02-13T05:44:38.853Z,1009.72
2024-02-13T05:45:38.845Z,1009.76
2024-02-13T05:46:38.834Z,1009.77
2024-02-13T05:47:38.959Z,1009.79
2024-02-13T05:48:38.843Z,1009.79
2024-02-13T05:49:38.811Z,1009.81
2024-02-13T05:50:38.838Z,1009.81
2024-02-13T05:51:38.781Z,1009.84
2024-02-13T05:52:38.754Z,1009.84
2024-02-13T05:53:38.806Z,1009.83
2024-02-13T05:54:40.769Z,1009.89
2024-02-13T05:55:38.727Z,1009.87
2024-02-13T05:56:38.769Z,1009.91
2024-02-13T05:57:38.693Z,1009.90
2024-02-13T05:58:38.684Z,1009.88
2024-02-13T05:59:38.722Z,1009.88
2024-02-13T06:00:38.752Z,1009.92
2024-02-13T06:01:38.739Z,1009.89
2024-02-13T06:02:38.705Z,1009.90
2024-02-13T06:03:38.637Z,1009.93
2024-02-13T06:04:38.726Z,1009.94
2024-02-13T06:05:38.758Z,1009.93
2024-02-13T06:06:38.978Z,1009.97
2024-02-13T06:07:38.624Z,1010.04
2024-02-13T06:08:38.634Z,1010.00
2024-02-13T06:09:38.564Z,1010.00
2024-02-13T06:10:38.636Z,1010.01
2024-02-13T06:11:38.669Z,1010.04
2024-02-13T06:12:38.535Z,1010.07
2024-02-13T06:13:38.523Z,1010.11
2024-02-13T06:14:38.580Z,1010.13
2024-02-13T06:15:38.530Z,1010.11
2024-02-13T06:16:38.495Z,1010.11
2024-02-13T06:17:38.595Z,1010.15
2024-02-13T06:18:38.592Z,1010.19
2024-02-13T06:19:38.496Z,1010.21
2024-02-13T06:20:38.497Z,1010.24
2024-02-13T06:21:38.438Z,1010.26
2024-02-13T06:22:38.425Z,1010.26
2024-02-13T06:23:38.445Z,1010.28
2024-02-13T06:24:38.416Z,1010.29
2024-02-13T06:25:38.390Z,1010.32
2024-02-13T06:26:38.420Z,1010.31
2024-02-13T06:27:38.395Z,1010.28
2024-02-13T06:28:38.379Z,1010.31
2024-02-13T06:29:38.386Z,1010.33
2024-02-13T06:30:46.201Z,1010.29
2024-02-13T06:31:38.331Z,1010.36
2024-02-13T06:32:38.528Z,1010.33
2024-02-13T06:33:38.418Z,1010.35
2024-02-13T06:34:38.354Z,1010.35
2024-02-13T06:35:38.316Z,1010.35
2024-02-13T06:36:38.294Z,1010.38
2024-02-13T06:37:38.260Z,1010.41
2024-02-13T06:38:38.297Z,1010.41
2024-02-13T06:39:38.266Z,1010.38
2024-02-13T06:40:38.243Z,1010.42
2024-02-13T06:41:38.294Z,1010.41
2024-02-13T06:42:38.222Z,1010.45
2024-02-13T06:43:38.212Z,1010.45
2024-02-13T06:44:38.211Z,1010.44
2024-02-13T06:45:38.190Z,1010.45
2024-02-13T06:46:38.165Z,1010.47
2024-02-13T06:47:38.429Z,1010.50
2024-02-13T06:48:38.380Z,1010.50
2024-02-13T06:49:38.138Z,1010.55
2024-02-13T06:50:38.149Z,1010.53
2024-02-13T06:51:38.110Z,1010.52
2024-02-13T06:52:38.139Z,1010.57
2024-02-13T06:53:38.207Z,1010.58
2024-02-13T06:54:38.072Z,1010.56
2024-02-13T06:55:38.081Z,1010.61
2024-02-13T06:56:38.094Z,1010.63
2024-02-13T06:57:38.095Z,1010.66
2024-02-13T06:58:38.039Z,1010.70
2024-02-13T06:59:38.045Z,1010.73
2024-02-13T07:00:38.044Z,1010.71
2024-02-13T07:01:38.022Z,1010.74
2024-02-13T07:02:38.226Z,1010.75
2024-02-13T07:03:38.105Z,1010.77
2024-02-13T07:04:38.004Z,1010.76
2024-02-13T07:05:37.978Z,1010.75
2024-02-13T07:06:48.358Z,1010.78
2024-02-13T07:07:46.218Z,1010.77
2024-02-13T07:08:39.215Z,1010.77
2024-02-13T07:09:38.070Z,1010.78
2024-02-13T07:10:37.957Z,1010.78
2024-02-13T07:11:38.030Z,1010.80
2024-02-13T07:12:37.875Z,1010.84
2024-02-13T07:13:37.862Z,1010.86
2024-02-13T07:14:37.900Z,1010.85
2024-02-13T07:15:38.163Z,1010.77
2024-02-13T07:16:40.896Z,1010.83
2024-02-13T07:17:47.646Z,1010.83
2024-02-13T07:18:38.974Z,1010.85
2024-02-13T07:19:37.966Z,1010.85
2024-02-13T07:20:37.912Z,1010.90
2024-02-13T07:21:37.775Z,1010.84
2024-02-13T07:22:37.802Z,1010.85
2024-02-13T07:23:37.942Z,1010.83
2024-02-13T07:24:38.331Z,1010.84
2024-02-13T07:25:37.747Z,1010.89
2024-02-13T07:26:37.757Z,1010.92
2024-02-13T07:27:37.739Z,1010.92
2024-02-13T07:28:37.701Z,1010.99
2024-02-13T07:29:37.720Z,1010.97
2024-02-13T07:30:37.687Z,1011.01
2024-02-13T07:31:37.675Z,1010.98
2024-02-13T07:32:37.720Z,1011.02
2024-02-13T07:33:37.908Z,1010.97
2024-02-13T07:34:37.702Z,1010.97
2024-02-13T07:35:37.648Z,1010.98
2024-02-13T07:36:37.666Z,1010.97
2024-02-13T07:37:37.647Z,1011.04
2024-02-13T07:38:37.674Z,1011.09
2024-02-13T07:39:37.603Z,1011.07
2024-02-13T07:40:37.592Z,1011.04
2024-02-13T07:41:37.597Z,1011.09
2024-02-13T07:42:37.549Z,1011.06
2024-02-13T07:43:37.557Z,1011.09
2024-02-13T07:44:37.736Z,1011.11
2024-02-13T07:45:37.528Z,1011.11
2024-02-13T07:46:37.510Z,1011.12
2024-02-13T07:47:37.612Z,1011.17
2024-02-13T07:48:37.695Z,1011.16
2024-02-13T07:49:37.560Z,1011.16
2024-02-13T07:50:37.526Z,1011.21
2024-02-13T07:51:37.461Z,1011.15
2024-02-13T07:52:37.452Z,1011.09
2024-02-13T07:53:37.462Z,1011.15
2024-02-13T07:54:37.431Z,1011.15
2024-02-13T07:55:37.407Z,1011.16
2024-02-13T07:56:37.494Z,1011.17
2024-02-13T07:57:37.419Z,1011.20
2024-02-13T07:58:37.394Z,1011.19
2024-02-13T07:59:37.392Z,1011.19
2024-02-13T08:00:37.520Z,1011.15
2024-02-13T08:01:37.347Z,1011.14
2024-02-13T08:02:37.465Z,1011.20
2024-02-13T08:03:37.321Z,1011.17
2024-02-13T08:04:37.344Z,1011.13
2024-02-13T08:05:37.345Z,1011.17
2024-02-13T08:06:37.344Z,1011.26
2024-02-13T08:07:37.308Z,1011.20
2024-02-13T08:08:37.360Z,1011.25
2024-02-13T08:09:37.283Z,1011.27
2024-02-13T08:10:37.243Z,1011.26
2024-02-13T08:11:37.296Z,1011.28
2024-02-13T08:12:37.242Z,1011.28
2024-02-13T08:13:37.269Z,1011.27
2024-02-13T08:14:37.271Z,1011.27
2024-02-13T08:15:37.189Z,1011.27
2024-02-13T08:16:37.582Z,1011.31
2024-02-13T08:17:37.314Z,1011.32
2024-02-13T08:18:37.200Z,1011.28
2024-02-13T08:19:37.202Z,1011.32
2024-02-13T08:20:37.193Z,1011.29
2024-02-13T08:21:37.133Z,1011.31
2024-02-13T08:22:37.116Z,1011.33
2024-02-13T08:23:37.129Z,1011.35
2024-02-13T08:24:37.376Z,1011.34
2024-02-13T08:25:37.107Z,1011.26
2024-02-13T08:26:37.098Z,1011.33
2024-02-13T08:27:37.116Z,1011.28
2024-02-13T08:28:37.081Z,1011.22
2024-02-13T08:29:37.118Z,1011.24
2024-02-13T08:30:37.032Z,1011.31
2024-02-13T08:31:37.015Z,1011.31
2024-02-13T08:32:37.101Z,1011.34
2024-02-13T08:33:37.222Z,1011.31
2024-02-13T08:34:37.165Z,1011.34
2024-02-13T08:35:37.123Z,1011.33
2024-02-13T08:36:36.958Z,1011.41
2024-02-13T08:37:36.949Z,1011.41
2024-02-13T08:38:36.984Z,1011.39
2024-02-13T08:39:36.944Z,1011.43
2024-02-13T08:40:36.934Z,1011.38
2024-02-13T08:41:36.960Z,1011.38
2024-02-13T08:42:36.909Z,1011.39
2024-02-13T08:43:36.884Z,1011.41
2024-02-13T08:44:36.930Z,1011.43
2024-02-13T08:45:36.855Z,1011.44
2024-02-13T08:46:36.870Z,1011.42
2024-02-13T08:47:36.934Z,1011.46
2024-02-13T08:48:37.014Z,1011.47
2024-02-13T08:49:36.951Z,1011.48
2024-02-13T08:50:36.911Z,1011.50
2024-02-13T08:51:38.525Z,1011.53
2024-02-13T08:52:36.792Z,1011.57
2024-02-13T08:53:36.924Z,1011.55
2024-02-13T08:54:36.769Z,1011.47
2024-02-13T08:55:36.769Z,1011.51
2024-02-13T08:56:36.807Z,1011.50
2024-02-13T08:57:36.752Z,1011.49
2024-02-13T08:58:36.815Z,1011.47
2024-02-13T08:59:36.748Z,1011.50
2024-02-13T09:00:36.742Z,1011.52
2024-02-13T09:01:36.817Z,1011.53
2024-02-13T09:02:36.753Z,1011.55
2024-02-13T09:03:36.688Z,1011.52
2024-02-13T09:04:36.731Z,1011.58
2024-02-13T09:05:36.715Z,1011.61
2024-02-13T09:06:36.968Z,1011.62
2024-02-13T09:07:36.624Z,1011.63
2024-02-13T09:08:36.673Z,1011.64
2024-02-13T09:09:36.623Z,1011.65
2024-02-13T09:10:36.585Z,1011.61
2024-02-13T09:11:36.648Z,1011.64
2024-02-13T09:12:36.598Z,1011.68
2024-02-13T09:13:36.553Z,1011.67
2024-02-13T09:14:36.677Z,1011.65
2024-02-13T09:15:36.527Z,1011.69
2024-02-13T09:16:36.569Z,1011.69
2024-02-13T09:17:36.603Z,1011.70
2024-02-13T09:18:36.577Z,1011.66
2024-02-13T09:19:36.499Z,1011.69
2024-02-13T09:20:36.540Z,1011.68
2024-02-13T09:21:36.467Z,1011.71
2024-02-13T09:22:36.447Z,1011.72
2024-02-13T09:23:36.588Z,1011.72
2024-02-13T09:24:36.433Z,1011.69
2024-02-13T09:25:36.417Z,1011.69
2024-02-13T09:26:36.470Z,1011.71
2024-02-13T09:27:36.406Z,1011.75
2024-02-13T09:28:36.378Z,1011.69
2024-02-13T09:29:36.425Z,1011.73
2024-02-13T09:30:36.364Z,1011.77
2024-02-13T09:31:36.384Z,1011.76
2024-02-13T09:32:36.456Z,1011.70
2024-02-13T09:33:36.522Z,1011.75
2024-02-13T09:34:36.355Z,1011.77
2024-02-13T09:35:36.336Z,1011.86
2024-02-13T09:36:36.299Z,1011.86
2024-02-13T09:37:36.282Z,1011.88
2024-02-13T09:38:36.296Z,1011.80
2024-02-13T09:39:36.276Z,1011.78
2024-02-13T09:40:36.284Z,1011.78
2024-02-13T09:41:36.282Z,1011.88
2024-02-13T09:42:36.230Z,1011.80
2024-02-13T09:43:37.592Z,1011.87
2024-02-13T09:44:36.262Z,1011.84
2024-02-13T09:45:36.210Z,1011.83
2024-02-13T09:46:36.185Z,1011.85
2024-02-13T09:47:36.239Z,1011.85
2024-02-13T09:48:36.347Z,1011.87
2024-02-13T09:49:36.242Z,1011.91
2024-02-13T09:50:36.169Z,1011.92
2024-02-13T09:51:36.126Z,1011.95
2024-02-13T09:52:36.122Z,1011.94
2024-02-13T09:53:36.145Z,1011.91
2024-02-13T09:54:36.120Z,1011.93
2024-02-13T09:55:36.087Z,1011.91
2024-02-13T09:56:36.110Z,1011.93
2024-02-13T09:57:36.079Z,1011.94
2024-02-13T09:58:36.072Z,1011.93
2024-02-13T09:59:36.080Z,1012.05
2024-02-13T10:00:36.042Z,1011.94
2024-02-13T10:01:36.027Z,1011.94
2024-02-13T10:02:36.106Z,1011.97
2024-02-13T10:03:36.136Z,1012.02
2024-02-13T10:04:36.009Z,1011.98
2024-02-13T10:05:36.049Z,1011.98
2024-02-13T10:06:36.002Z,1011.95
2024-02-13T10:07:38.984Z,1011.90
2024-02-13T10:08:36.040Z,1011.94
2024-02-13T10:09:35.958Z,1011.99
2024-02-13T10:10:35.925Z,1012.02
2024-02-13T10:11:35.934Z,1012.03
2024-02-13T10:12:35.912Z,1012.00
2024-02-13T10:13:35.894Z,1012.07
2024-02-13T10:14:35.904Z,1012.09
2024-02-13T10:15:35.874Z,1012.04
2024-02-13T10:16:35.854Z,1012.11
2024-02-13T10:17:35.890Z,1012.03
2024-02-13T10:18:36.007Z,1012.09
2024-02-13T10:19:37.961Z,1012.28
2024-02-13T10:20:35.869Z,1012.07
2024-02-13T10:21:35.819Z,1012.20
2024-02-13T10:22:35.808Z,1012.06
2024-02-13T10:23:35.850Z,1012.06
2024-02-13T10:24:35.846Z,1012.07
2024-02-13T10:25:35.772Z,1012.15
2024-02-13T10:26:35.926Z,1012.16
2024-02-13T10:27:35.749Z,1012.16
2024-02-13T10:28:35.756Z,1012.14
2024-02-13T10:29:35.743Z,1012.12
2024-02-13T10:30:35.704Z,1012.20
2024-02-13T10:31:35.750Z,1012.21
2024-02-13T10:32:35.770Z,1012.12
2024-02-13T10:33:35.733Z,1012.21
2024-02-13T10:34:35.672Z,1012.24
2024-02-13T10:35:35.776Z,1012.22
2024-02-13T10:36:35.750Z,1012.25
2024-02-13T10:37:35.631Z,1012.26
2024-02-13T10:38:35.655Z,1012.31
2024-02-13T10:39:35.645Z,1012.35
2024-02-13T10:40:35.616Z,1012.31
2024-02-13T10:41:35.630Z,1012.29
2024-02-13T10:42:35.598Z,1012.31
2024-02-13T10:43:35.591Z,1012.24
2024-02-13T10:44:35.560Z,1012.35
2024-02-13T10:45:35.557Z,1012.34
2024-02-13T10:46:35.526Z,1012.37
2024-02-13T10:47:35.633Z,1012.34
2024-02-13T10:48:35.730Z,1012.34
2024-02-13T10:49:35.528Z,1012.36
2024-02-13T10:50:35.573Z,1012.37
2024-02-13T10:51:35.477Z,1012.38
2024-02-13T10:52:35.477Z,1012.40
2024-02-13T10:53:35.462Z,1012.34
2024-02-13T10:54:35.464Z,1012.43
2024-02-13T10:55:35.436Z,1012.39
2024-02-13T10:56:35.441Z,1012.38
2024-02-13T10:57:35.413Z,1012.36
2024-02-13T10:58:35.538Z,1012.36
2024-02-13T10:59:35.453Z,1012.41
2024-02-13T11:00:35.518Z,1012.36
2024-02-13T11:01:35.511Z,1012.37
2024-02-13T11:02:35.387Z,1012.37
2024-02-13T11:03:35.357Z,1012.31
2024-02-13T11:04:35.374Z,1012.37
2024-02-13T11:05:35.349Z,1012.32
2024-02-13T11:06:35.423Z,1012.35
2024-02-13T11:07:35.298Z,1012.31
2024-02-13T11:08:35.351Z,1012.34
2024-02-13T11:09:35.276Z,1012.34
2024-02-13T11:10:35.269Z,1012.35
2024-02-13T11:11:35.278Z,1012.38
2024-02-13T11:12:35.365Z,1012.36
2024-02-13T11:13:35.255Z,1012.40
2024-02-13T11:14:35.305Z,1012.34
2024-02-13T11:15:35.214Z,1012.40
2024-02-13T11:16:35.196Z,1012.40
2024-02-13T11:17:35.231Z,1012.37
2024-02-13T11:18:35.318Z,1012.42
2024-02-13T11:19:35.217Z,1012.40
2024-02-13T11:20:35.239Z,1012.45
2024-02-13T11:21:35.145Z,1012.40
2024-02-13T11:22:35.148Z,1012.38
2024-02-13T11:23:35.252Z,1012.38
2024-02-13T11:24:35.144Z,1012.36
2024-02-13T11:25:35.112Z,1012.34
2024-02-13T11:26:35.204Z,1012.37
2024-02-13T11:27:35.364Z,1012.36
2024-02-13T11:28:35.096Z,1012.33
2024-02-13T11:29:35.144Z,1012.35
2024-02-13T11:30:35.049Z,1012.35
2024-02-13T11:31:35.051Z,1012.37
2024-02-13T11:32:35.239Z,1012.37
2024-02-13T11:33:35.160Z,1012.39
2024-02-13T11:34:35.228Z,1012.39
2024-02-13T11:35:35.181Z,1012.37
2024-02-13T11:36:35.125Z,1012.38
2024-02-13T11:37:34.970Z,1012.46
2024-02-13T11:38:34.987Z,1012.37
2024-02-13T11:39:34.950Z,1012.37
2024-02-13T11:40:34.993Z,1012.38
2024-02-13T11:41:35.107Z,1012.45
2024-02-13T11:42:35.045Z,1012.40
2024-02-13T11:43:34.919Z,1012.42
2024-02-13T11:44:34.915Z,1012.36
2024-02-13T11:45:34.893Z,1012.40
2024-02-13T11:46:34.875Z,1012.37
2024-02-13T11:47:35.104Z,1012.37
2024-02-13T11:48:35.716Z,1012.41
2024-02-13T11:49:34.995Z,1012.36
2024-02-13T11:50:34.931Z,1012.30
2024-02-13T11:51:34.918Z,1012.32
2024-02-13T11:52:34.808Z,1012.34
2024-02-13T11:53:34.892Z,1012.42
2024-02-13T11:54:34.801Z,1012.42
2024-02-13T11:55:34.826Z,1012.40
2024-02-13T11:56:34.794Z,1012.40
2024-02-13T11:57:34.754Z,1012.39
2024-02-13T11:58:34.745Z,1012.36
2024-02-13T11:59:34.777Z,1012.35
2024-02-13T12:00:34.766Z,1012.41
2024-02-13T12:01:34.723Z,1012.39
2024-02-13T12:02:34.852Z,1012.34
2024-02-13T12:03:34.720Z,1012.35
2024-02-13T12:04:34.757Z,1012.34
2024-02-13T12:05:34.701Z,1012.31